createdAt,value
2018-04-10T00:00:48.622Z,43.23
2018-04-10T00:03:16.154Z,44.40
2018-04-10T00:05:43.677Z,42.60
2018-04-10T00:08:11.273Z,38.40
2018-04-10T00:10:38.785Z,36.40
2018-04-10T00:13:06.299Z,44.53
2018-04-10T00:15:34.025Z,39.13
2018-04-10T00:18:01.573Z,43.20
2018-04-10T00:20:29.127Z,39.87
2018-04-10T00:22:56.668Z,44.67
2018-04-10T00:25:24.213Z,36.50
2018-04-10T00:27:51.815Z,40.70
2018-04-10T00:30:19.367Z,45.00
2018-04-10T00:32:46.913Z,44.93
2018-04-10T00:35:14.481Z,41.90
2018-04-10T00:37:42.257Z,42.47
2018-04-10T00:40:09.766Z,58.17
2018-04-10T00:42:37.366Z,43.77
2018-04-10T00:45:05.238Z,44.43
2018-04-10T00:47:32.934Z,45.40
2018-04-10T00:50:00.453Z,49.63
2018-04-10T00:52:28.336Z,43.23
2018-04-10T00:54:55.850Z,47.20
2018-04-10T00:57:23.442Z,44.93
2018-04-10T00:59:50.975Z,59.17
2018-04-10T01:02:18.504Z,49.30
2018-04-10T01:04:46.030Z,44.03
2018-04-10T01:07:13.584Z,47.73
2018-04-10T01:09:41.133Z,46.23
2018-04-10T01:12:08.633Z,51.97
2018-04-10T01:14:36.267Z,52.30
2018-04-10T01:17:03.791Z,49.80
2018-04-10T01:19:31.589Z,54.60
2018-04-10T01:21:59.123Z,48.83
2018-04-10T01:24:26.638Z,51.50
2018-04-10T01:26:54.148Z,47.60
2018-04-10T01:29:21.942Z,53.17
2018-04-10T01:31:49.610Z,50.07
2018-04-10T01:34:17.167Z,47.83
2018-04-10T01:36:44.705Z,54.30
2018-04-10T01:39:12.261Z,50.40
2018-04-10T01:41:39.797Z,54.90
2018-04-10T01:44:07.357Z,51.20
2018-04-10T01:46:34.887Z,47.67
2018-04-10T01:49:02.396Z,48.57
2018-04-10T01:51:29.944Z,49.73
2018-04-10T01:53:57.473Z,58.90
2018-04-10T01:56:25.085Z,53.80
2018-04-10T01:58:52.685Z,49.07
2018-04-10T02:01:20.197Z,55.60
2018-04-10T02:03:47.702Z,47.50
2018-04-10T02:06:15.279Z,56.07
2018-04-10T02:08:42.791Z,52.63
2018-04-10T02:17:08.820Z,49.37
2018-04-10T02:19:53.945Z,53.33
2018-04-10T02:22:21.497Z,58.93
2018-04-10T02:24:49.052Z,49.33
2018-04-10T02:27:16.639Z,50.90
2018-04-10T02:29:45.326Z,55.23
2018-04-10T02:32:12.868Z,57.87
2018-04-10T02:34:40.415Z,49.17
2018-04-10T02:37:07.937Z,65.30
2018-04-10T02:39:35.722Z,57.30
2018-04-10T02:42:03.307Z,55.37
2018-04-10T02:44:31.127Z,57.30
2018-04-10T02:46:58.654Z,49.67
2018-04-10T02:49:26.242Z,55.20
2018-04-10T02:51:53.779Z,57.43
2018-04-10T02:54:21.315Z,49.50
2018-04-10T02:56:48.873Z,64.97
2018-04-10T02:59:16.660Z,52.30
2018-04-10T03:01:44.451Z,52.13
2018-04-10T03:04:12.301Z,59.40
2018-04-10T03:06:39.821Z,54.50
2018-04-10T03:09:07.467Z,57.03
2018-04-10T03:11:34.967Z,67.83
2018-04-10T03:14:02.481Z,56.40
2018-04-10T03:16:30.052Z,52.37
2018-04-10T03:18:57.561Z,48.73
2018-04-10T03:21:25.109Z,49.80
2018-04-10T03:23:52.661Z,55.97
2018-04-10T03:26:20.203Z,59.10
2018-04-10T03:28:47.770Z,60.43
2018-04-10T03:31:15.311Z,51.53
2018-04-10T03:33:42.844Z,56.10
2018-04-10T03:36:10.408Z,63.77
2018-04-10T03:38:38.008Z,62.93
2018-04-10T03:41:05.549Z,54.80
2018-04-10T03:43:33.109Z,62.27
2018-04-10T03:46:00.770Z,56.23
2018-04-10T03:48:28.302Z,53.83
2018-04-10T03:50:55.930Z,54.33
2018-04-10T03:53:23.458Z,59.80
2018-04-10T03:55:51.642Z,65.67
2018-04-10T03:58:19.461Z,54.07
2018-04-10T04:00:46.990Z,64.33
2018-04-10T04:03:14.529Z,51.70
2018-04-10T04:05:42.035Z,59.90
2018-04-10T04:08:09.571Z,58.90
2018-04-10T04:10:37.072Z,54.57
2018-04-10T04:13:05.274Z,55.90
2018-04-10T04:15:32.816Z,53.37
2018-04-10T04:18:00.345Z,61.03
2018-04-10T04:20:39.675Z,56.90
2018-04-10T04:23:07.228Z,56.80
2018-04-10T04:25:34.770Z,54.07
2018-04-10T04:28:02.311Z,57.40
2018-04-10T04:30:30.235Z,57.50
2018-04-10T04:32:57.812Z,53.63
2018-04-10T04:35:25.396Z,55.40
2018-04-10T04:37:53.035Z,58.67
2018-04-10T04:40:20.674Z,59.47
2018-04-10T04:42:48.228Z,53.40
2018-04-10T04:45:15.800Z,65.90
2018-04-10T04:47:44.066Z,62.23
2018-04-10T04:50:11.626Z,61.37
2018-04-10T04:52:39.274Z,56.97
2018-04-10T04:55:06.843Z,67.33
2018-04-10T04:57:34.698Z,62.13
2018-04-10T05:00:02.253Z,62.53
2018-04-10T05:02:29.789Z,62.10
2018-04-10T05:04:57.352Z,59.07
2018-04-10T05:07:24.878Z,54.13
2018-04-10T05:09:52.450Z,56.53
2018-04-10T05:12:20.479Z,60.30
2018-04-10T05:14:48.043Z,64.10
2018-04-10T05:17:15.596Z,54.90
2018-04-10T05:19:43.164Z,53.03
2018-04-10T05:22:10.720Z,52.30
2018-04-10T05:24:38.256Z,58.80
2018-04-10T05:27:05.853Z,67.63
2018-04-10T05:29:33.409Z,65.27
2018-04-10T05:32:00.944Z,54.57
2018-04-10T05:34:28.467Z,65.47
2018-04-10T05:36:56.106Z,60.37
2018-04-10T05:39:23.626Z,54.70
2018-04-10T05:41:51.549Z,58.07
2018-04-10T05:44:19.330Z,59.10
2018-04-10T05:46:46.874Z,62.10
2018-04-10T05:49:14.449Z,71.97
2018-04-10T05:51:41.986Z,65.30
2018-04-10T05:54:09.776Z,79.73
2018-04-10T05:56:37.337Z,62.83
2018-04-10T05:59:04.855Z,64.73
2018-04-10T06:01:32.629Z,61.60
2018-04-10T06:04:00.258Z,57.73
2018-04-10T06:06:27.789Z,62.33
2018-04-10T06:08:55.327Z,62.30
2018-04-10T06:11:22.895Z,58.00
2018-04-10T06:13:50.439Z,56.03
2018-04-10T06:16:17.997Z,53.53
2018-04-10T06:18:45.515Z,71.80
2018-04-10T06:21:13.535Z,59.80
2018-04-10T06:23:41.090Z,63.70
2018-04-10T06:26:08.609Z,62.93
2018-04-10T06:28:36.143Z,61.50
2018-04-10T06:31:03.771Z,51.47
2018-04-10T06:33:31.321Z,56.43
2018-04-10T06:35:59.100Z,52.77
2018-04-10T06:38:26.885Z,52.23
2018-04-10T06:40:54.411Z,53.90
2018-04-10T06:43:21.958Z,60.30
2018-04-10T06:45:49.757Z,65.87
2018-04-10T06:48:17.337Z,66.17
2018-04-10T06:50:44.853Z,54.63
2018-04-10T06:53:12.388Z,70.93
2018-04-10T06:55:39.911Z,60.13
2018-04-10T06:58:07.615Z,49.80
2018-04-10T07:00:35.188Z,64.57
2018-04-10T07:03:02.838Z,59.83
2018-04-10T07:05:30.502Z,53.10
2018-04-10T07:07:58.142Z,58.50
2018-04-10T07:10:25.749Z,56.83
2018-04-10T07:12:53.310Z,63.40
2018-04-10T07:15:20.885Z,67.70
2018-04-10T07:17:49.743Z,64.97
2018-04-10T07:20:17.350Z,54.17
2018-04-10T07:22:44.868Z,51.73
2018-04-10T07:25:12.558Z,53.57
2018-04-10T07:27:40.447Z,62.23
2018-04-10T07:30:08.150Z,52.97
2018-04-10T07:32:35.806Z,63.87
2018-04-10T07:35:03.363Z,61.63
2018-04-10T07:37:31.023Z,62.60
2018-04-10T07:39:58.706Z,52.63
2018-04-10T07:42:26.759Z,59.53
2018-04-10T07:44:54.290Z,52.53
2018-04-10T07:47:21.881Z,55.33
2018-04-10T07:49:49.944Z,54.63
2018-04-10T07:52:17.486Z,51.77
2018-04-10T07:54:45.161Z,56.87
2018-04-10T07:57:12.691Z,54.80
2018-04-10T07:59:40.240Z,51.97
2018-04-10T08:02:07.814Z,49.50
2018-04-10T08:04:35.409Z,50.17
2018-04-10T08:07:02.963Z,62.17
2018-04-10T08:09:30.500Z,61.60
2018-04-10T08:11:59.208Z,54.30
2018-04-10T08:14:26.936Z,152.00
2018-04-10T08:16:54.646Z,64.00
2018-04-10T08:19:22.220Z,63.63
2018-04-10T08:21:49.726Z,47.23
2018-04-10T08:24:17.288Z,44.90
2018-04-10T08:26:44.873Z,45.00
2018-04-10T08:29:12.402Z,48.60
2018-04-10T08:31:40.008Z,40.57
2018-04-10T08:34:07.556Z,48.37
2018-04-10T08:36:35.086Z,46.90
2018-04-10T08:39:02.983Z,60.03
2018-04-10T08:41:30.850Z,46.17
2018-04-10T08:43:58.473Z,48.93
2018-04-10T08:46:26.289Z,44.77
2018-04-10T08:48:53.840Z,56.63
2018-04-10T08:51:21.369Z,45.93
2018-04-10T08:53:48.888Z,62.13
2018-04-10T08:56:16.434Z,41.70
2018-04-10T08:58:44.504Z,42.47
2018-04-10T09:01:12.835Z,41.43
2018-04-10T09:03:40.430Z,40.47
2018-04-10T09:06:07.950Z,49.97
2018-04-10T09:08:35.590Z,48.47
2018-04-10T09:11:03.176Z,38.10
2018-04-10T09:13:30.693Z,46.77
2018-04-10T09:15:58.206Z,37.63
2018-04-10T09:18:26.000Z,48.53
2018-04-10T09:20:53.521Z,51.83
2018-04-10T09:23:21.065Z,42.23
2018-04-10T09:25:48.783Z,38.90
2018-04-10T09:28:16.336Z,34.33
2018-04-10T09:30:43.907Z,40.93
2018-04-10T09:33:11.472Z,42.00
2018-04-10T09:35:39.047Z,50.27
2018-04-10T09:38:06.571Z,42.23
2018-04-10T09:40:34.230Z,51.43
2018-04-10T09:43:01.772Z,35.70
2018-04-10T09:45:29.283Z,50.53
2018-04-10T09:47:56.849Z,42.73
2018-04-10T09:50:24.361Z,41.17
2018-04-10T09:52:51.976Z,34.97
2018-04-10T09:55:19.532Z,37.93
2018-04-10T09:57:47.085Z,37.87
2018-04-10T10:00:14.633Z,43.50
2018-04-10T10:02:42.208Z,36.23
2018-04-10T10:05:09.902Z,51.27
2018-04-10T10:07:37.423Z,41.47
2018-04-10T10:10:04.976Z,37.23
2018-04-10T10:12:32.566Z,40.60
2018-04-10T10:15:00.145Z,38.20
2018-04-10T10:17:27.689Z,44.73
2018-04-10T10:19:55.549Z,39.37
2018-04-10T10:22:23.074Z,34.93
2018-04-10T10:24:50.715Z,56.70
2018-04-10T10:27:18.230Z,38.53
2018-04-10T10:29:45.769Z,46.23
2018-04-10T10:32:13.399Z,37.73
2018-04-10T10:34:40.905Z,41.60
2018-04-10T10:37:08.414Z,37.67
2018-04-10T10:39:35.969Z,47.73
2018-04-10T10:42:03.497Z,36.43
2018-04-10T10:44:31.531Z,36.53
2018-04-10T10:46:59.113Z,43.53
2018-04-10T10:49:26.974Z,29.77
2018-04-10T10:51:54.980Z,36.90
2018-04-10T10:54:22.521Z,44.40
2018-04-10T10:56:50.054Z,29.57
2018-04-10T10:59:17.580Z,35.33
2018-04-10T11:01:45.144Z,42.50
2018-04-10T11:04:12.644Z,33.13
2018-04-10T11:06:40.190Z,33.63
2018-04-10T11:09:07.838Z,39.00
2018-04-10T11:11:35.365Z,34.73
2018-04-10T11:14:02.913Z,37.40
2018-04-10T11:16:30.479Z,24.90
2018-04-10T11:18:58.314Z,31.80
2018-04-10T11:21:25.906Z,32.10
2018-04-10T11:23:53.455Z,29.57
2018-04-10T11:26:20.976Z,35.10
2018-04-10T11:28:48.530Z,33.30
2018-04-10T11:31:16.444Z,39.70
2018-04-10T11:33:43.962Z,31.27
2018-04-10T11:36:11.586Z,29.77
2018-04-10T11:38:40.068Z,26.30
2018-04-10T11:41:07.651Z,30.30
2018-04-10T11:43:35.243Z,34.10
2018-04-10T11:46:02.960Z,30.47
2018-04-10T11:48:30.485Z,28.40
2018-04-10T11:50:58.013Z,26.13
2018-04-10T11:53:25.608Z,26.00
2018-04-10T11:55:53.137Z,34.40
2018-04-10T11:58:20.879Z,30.53
2018-04-10T12:00:48.416Z,34.57
2018-04-10T12:03:15.942Z,22.20
2018-04-10T12:05:43.592Z,24.37
2018-04-10T12:08:11.246Z,41.23
2018-04-10T12:10:38.806Z,24.92
2018-04-10T12:13:06.356Z,35.23
2018-04-10T12:15:33.977Z,25.02
2018-04-10T12:18:01.487Z,37.08
2018-04-10T12:20:29.003Z,20.80
2018-04-10T12:22:56.558Z,28.30
2018-04-10T12:25:24.077Z,18.98
2018-04-10T12:27:51.598Z,27.92
2018-04-10T12:30:19.251Z,21.95
2018-04-10T12:32:46.770Z,31.15
2018-04-10T12:35:14.283Z,23.33
2018-04-10T12:37:41.881Z,32.92
2018-04-10T12:40:09.473Z,21.05
2018-04-10T12:42:37.004Z,26.30
2018-04-10T12:45:04.567Z,38.72
2018-04-10T12:47:32.100Z,22.77
2018-04-10T12:49:59.664Z,21.87
2018-04-10T12:52:27.242Z,23.85
2018-04-10T12:54:55.039Z,17.05
2018-04-10T12:57:22.600Z,15.13
2018-04-10T12:59:50.154Z,24.27
2018-04-10T13:02:17.721Z,19.10
2018-04-10T13:04:45.247Z,33.60
2018-04-10T13:07:12.808Z,23.80
2018-04-10T13:09:40.331Z,31.42
2018-04-10T13:12:07.896Z,17.02
2018-04-10T13:14:35.453Z,17.17
2018-04-10T13:17:02.960Z,18.42
2018-04-10T13:19:30.494Z,21.50
2018-04-10T13:21:58.058Z,17.20
2018-04-10T13:24:25.634Z,21.57
2018-04-10T13:26:53.135Z,16.90
2018-04-10T13:29:20.767Z,22.60
2018-04-10T13:31:48.331Z,20.43
2018-04-10T13:34:15.892Z,19.80
2018-04-10T13:36:43.636Z,21.70
2018-04-10T13:39:11.190Z,35.87
2018-04-10T13:41:38.770Z,20.20
2018-04-10T13:44:06.646Z,26.37
2018-04-10T13:46:34.179Z,27.83
2018-04-10T13:49:01.690Z,33.13
2018-04-10T13:51:29.285Z,36.73
2018-04-10T13:53:57.054Z,41.07
2018-04-10T13:56:24.626Z,24.63
2018-04-10T13:58:52.188Z,25.90
2018-04-10T14:01:19.697Z,26.20
2018-04-10T14:03:47.287Z,26.93
2018-04-10T14:06:14.857Z,25.77
2018-04-10T14:08:42.368Z,62.13
2018-04-10T14:11:10.071Z,28.43
2018-04-10T14:13:37.596Z,25.73
2018-04-10T14:16:05.355Z,35.20
2018-04-10T14:18:32.866Z,38.53
2018-04-10T14:21:00.510Z,28.97
2018-04-10T14:23:28.033Z,37.60
2018-04-10T14:25:55.538Z,50.53
2018-04-10T14:28:23.127Z,38.80
2018-04-10T14:30:50.666Z,22.30
2018-04-10T14:33:18.222Z,43.27
2018-04-10T14:35:45.746Z,24.70
2018-04-10T14:38:13.272Z,21.97
2018-04-10T14:40:40.797Z,23.40
2018-04-10T14:43:08.457Z,23.23
2018-04-10T14:45:35.974Z,26.13
2018-04-10T14:48:03.735Z,28.10
2018-04-10T14:50:31.601Z,27.87
2018-04-10T14:52:59.150Z,28.17
2018-04-10T14:55:26.702Z,24.30
2018-04-10T14:57:54.252Z,27.00
2018-04-10T15:00:21.859Z,27.97
2018-04-10T15:02:49.392Z,25.37
2018-04-10T15:05:16.970Z,33.53
2018-04-10T15:07:44.506Z,26.50
2018-04-10T15:10:12.034Z,24.80
2018-04-10T15:12:39.583Z,25.90
2018-04-10T15:15:07.279Z,35.03
2018-04-10T15:17:34.855Z,30.63
2018-04-10T15:20:02.437Z,33.33
2018-04-10T15:22:30.001Z,29.93
2018-04-10T15:24:57.566Z,26.17
2018-04-10T15:27:25.164Z,30.17
2018-04-10T15:29:52.682Z,24.83
2018-04-10T15:32:20.300Z,31.00
2018-04-10T15:34:48.004Z,22.80
2018-04-10T15:37:15.645Z,25.70
2018-04-10T15:39:43.222Z,38.53
2018-04-10T15:42:10.772Z,35.40
2018-04-10T15:44:38.421Z,31.33
2018-04-10T15:47:06.090Z,28.70
2018-04-10T15:49:33.805Z,24.10
2018-04-10T15:52:01.651Z,33.70
2018-04-10T15:54:29.226Z,29.77
2018-04-10T15:56:56.753Z,25.13
2018-04-10T15:59:24.279Z,26.97
2018-04-10T16:01:51.801Z,38.90
2018-04-10T16:04:19.394Z,25.17
2018-04-10T16:06:47.063Z,26.93
2018-04-10T16:09:14.590Z,29.50
2018-04-10T16:11:42.448Z,29.50
2018-04-10T16:14:09.980Z,36.80
2018-04-10T16:16:37.783Z,21.93
2018-04-10T16:19:05.322Z,30.43
2018-04-10T16:21:32.902Z,25.30
2018-04-10T16:24:00.428Z,32.03
2018-04-10T16:26:27.990Z,20.30
2018-04-10T16:28:55.488Z,30.13
2018-04-10T16:31:23.017Z,22.37
2018-04-10T16:33:50.564Z,30.83
2018-04-10T16:36:18.112Z,25.03
2018-04-10T16:38:45.626Z,48.67
2018-04-10T16:41:13.577Z,16.67
2018-04-10T16:43:41.225Z,15.67
2018-04-10T16:46:08.734Z,20.63
2018-04-10T16:48:36.279Z,16.90
2018-04-10T16:51:04.142Z,25.33
2018-04-10T16:53:31.763Z,29.83
2018-04-10T16:55:59.359Z,20.90
2018-04-10T16:58:26.885Z,26.33
2018-04-10T17:00:54.410Z,29.87
2018-04-10T17:03:22.006Z,14.77
2018-04-10T17:05:50.405Z,16.83
2018-04-10T17:08:17.903Z,23.27
2018-04-10T17:10:45.451Z,18.73
2018-04-10T17:13:12.970Z,16.60
2018-04-10T17:15:40.495Z,27.33
2018-04-10T17:18:08.034Z,15.27
2018-04-10T17:20:35.564Z,14.63
2018-04-10T17:23:03.104Z,16.73
2018-04-10T17:25:30.768Z,22.93
2018-04-10T17:27:58.286Z,29.53
2018-04-10T17:30:25.811Z,25.13
2018-04-10T17:32:53.363Z,21.03
2018-04-10T17:35:20.889Z,20.17
2018-04-10T17:37:48.581Z,16.50
2018-04-10T17:40:16.187Z,14.90
2018-04-10T17:42:43.702Z,14.63
2018-04-10T17:45:11.230Z,20.27
2018-04-10T17:47:38.858Z,24.03
2018-04-10T17:50:06.381Z,15.50
2018-04-10T17:52:33.947Z,24.40
2018-04-10T17:55:01.534Z,19.77
2018-04-10T17:57:29.042Z,24.67
2018-04-10T17:59:56.553Z,17.30
2018-04-10T18:02:24.144Z,20.87
2018-04-10T18:04:51.980Z,28.73
2018-04-10T18:07:20.272Z,16.93
2018-04-10T18:09:48.031Z,16.53
2018-04-10T18:12:15.574Z,17.63
2018-04-10T18:14:43.137Z,27.67
2018-04-10T18:17:10.706Z,18.20
2018-04-10T18:19:38.257Z,20.57
2018-04-10T18:22:06.249Z,20.40
2018-04-10T18:24:33.861Z,22.53
2018-04-10T18:27:02.418Z,21.60
2018-04-10T18:29:29.952Z,24.00
2018-04-10T18:31:57.491Z,20.33
2018-04-10T18:34:25.570Z,15.20
2018-04-10T18:36:53.102Z,46.53
2018-04-10T18:39:21.002Z,29.13
2018-04-10T18:41:48.670Z,25.13
2018-04-10T18:44:16.223Z,13.93
2018-04-10T18:46:43.784Z,19.47
2018-04-10T18:49:11.323Z,14.37
2018-04-10T18:51:38.845Z,22.10
2018-04-10T18:54:06.669Z,27.20
2018-04-10T18:56:34.310Z,30.20
2018-04-10T18:59:01.898Z,32.00
2018-04-10T19:01:29.660Z,35.80
2018-04-10T19:03:58.351Z,35.27
2018-04-10T19:06:26.067Z,44.80
2018-04-10T19:08:53.645Z,36.20
2018-04-10T19:11:21.482Z,43.93
2018-04-10T19:13:49.412Z,35.57
2018-04-10T19:16:17.065Z,35.37
2018-04-10T19:18:44.611Z,41.90
2018-04-10T19:21:12.132Z,45.07
2018-04-10T19:23:39.721Z,47.80
2018-04-10T19:26:07.257Z,48.27
2018-04-10T19:28:35.183Z,44.03
2018-04-10T19:31:02.767Z,40.57
2018-04-10T19:33:30.606Z,43.93
2018-04-10T19:35:58.123Z,35.10
2018-04-10T19:38:25.939Z,53.40
2018-04-10T19:40:53.510Z,39.33
2018-04-10T19:43:21.060Z,37.17
2018-04-10T19:45:48.617Z,36.77
2018-04-10T19:48:16.733Z,36.07
2018-04-10T19:50:44.364Z,37.50
2018-04-10T19:53:11.951Z,39.27
2018-04-10T19:55:39.478Z,44.23
2018-04-10T19:58:07.002Z,36.30
2018-04-10T20:00:34.555Z,36.77
2018-04-10T20:03:02.083Z,35.43
2018-04-10T20:05:29.628Z,36.40
2018-04-10T20:07:57.196Z,37.60
2018-04-10T20:10:24.897Z,37.57
2018-04-10T20:12:52.429Z,42.63
2018-04-10T20:15:20.694Z,47.33
2018-04-10T20:17:48.565Z,35.37
2018-04-10T20:20:16.098Z,40.10
2018-04-10T20:22:43.671Z,49.57
2018-04-10T20:25:11.441Z,37.53
2018-04-10T20:27:38.987Z,40.07
2018-04-10T20:30:06.584Z,38.23
2018-04-10T20:32:34.138Z,43.33
2018-04-10T20:35:01.709Z,55.53
2018-04-10T20:37:29.809Z,51.50
2018-04-10T20:39:58.542Z,38.23
2018-04-10T20:42:26.063Z,43.33
2018-04-10T20:44:53.770Z,44.47
2018-04-10T20:47:21.307Z,33.77
2018-04-10T20:49:48.879Z,35.60
2018-04-10T20:52:16.499Z,62.30
2018-04-10T20:54:44.224Z,37.97
2018-04-10T20:57:12.240Z,37.10
2018-04-10T20:59:39.816Z,41.20
2018-04-10T21:02:07.358Z,38.87
2018-04-10T21:04:34.981Z,52.03
2018-04-10T21:07:02.534Z,37.40
2018-04-10T21:09:30.790Z,41.33
2018-04-10T21:11:58.336Z,46.93
2018-04-10T21:14:25.901Z,41.73
2018-04-10T21:16:53.457Z,62.00
2018-04-10T21:19:20.980Z,50.43
2018-04-10T21:21:48.503Z,53.03
2018-04-10T21:24:16.028Z,44.23
2018-04-10T21:26:43.621Z,45.00
2018-04-10T21:29:11.138Z,40.10
2018-04-10T21:31:38.704Z,48.73
2018-04-10T21:34:06.517Z,42.47
2018-04-10T21:36:34.055Z,54.63
2018-04-10T21:39:01.658Z,60.37
2018-04-10T21:41:29.630Z,39.80
2018-04-10T21:43:57.180Z,44.80
2018-04-10T21:46:24.714Z,51.73
2018-04-10T21:48:52.265Z,55.60
2018-04-10T21:51:19.805Z,37.50
2018-04-10T21:53:47.356Z,39.17
2018-04-10T21:56:14.893Z,37.50
2018-04-10T21:58:42.462Z,36.17
2018-04-10T22:01:10.151Z,38.10
2018-04-10T22:03:37.812Z,42.70
2018-04-10T22:06:05.366Z,39.33
2018-04-10T22:08:32.896Z,40.10
2018-04-10T22:11:00.426Z,36.57
2018-04-10T22:13:27.959Z,43.93
2018-04-10T22:15:55.577Z,49.13
2018-04-10T22:18:23.103Z,50.73
2018-04-10T22:20:50.622Z,39.43
2018-04-10T22:23:18.666Z,44.50
2018-04-10T22:25:46.199Z,50.93
2018-04-10T22:28:13.759Z,41.90
2018-04-10T22:30:41.338Z,47.37
2018-04-10T22:33:08.835Z,52.13
2018-04-10T22:35:36.390Z,45.20
2018-04-10T22:38:03.959Z,42.77
2018-04-10T22:40:31.548Z,45.13
2018-04-10T22:42:59.091Z,53.37
2018-04-10T22:45:26.872Z,45.70
2018-04-10T22:47:54.433Z,43.73
2018-04-10T22:50:21.937Z,41.60
2018-04-10T22:52:49.486Z,41.30
2018-04-10T22:55:17.009Z,55.80
2018-04-10T22:57:44.542Z,49.90
2018-04-10T23:00:13.206Z,46.57
2018-04-10T23:02:40.743Z,47.70
2018-04-10T23:05:08.525Z,50.83
2018-04-10T23:07:36.045Z,38.53
2018-04-10T23:10:03.653Z,53.33
2018-04-10T23:12:31.215Z,41.77
2018-04-10T23:14:58.810Z,52.17
2018-04-10T23:17:26.378Z,44.87
2018-04-10T23:19:53.886Z,50.37
2018-04-10T23:22:21.427Z,48.10
2018-04-10T23:24:48.983Z,48.53
2018-04-10T23:27:16.761Z,49.23
2018-04-10T23:29:44.325Z,47.80
2018-04-10T23:32:11.838Z,49.27
2018-04-10T23:34:39.410Z,41.67
2018-04-10T23:37:06.947Z,52.20
2018-04-10T23:39:34.493Z,53.13
2018-04-10T23:42:02.345Z,39.17
2018-04-10T23:44:29.908Z,40.93
2018-04-10T23:46:57.442Z,42.63
2018-04-10T23:49:25.050Z,43.17
2018-04-10T23:51:52.567Z,52.33
2018-04-10T23:54:20.122Z,45.43
2018-04-10T23:56:47.908Z,36.23
2018-04-10T23:59:15.680Z,42.17
